Time;durP1;ratioP1;P1;durP2;ratioP2;P2;SDS_P1;SDS_P2;PMS_P1;PMS_P2;Temp;Humidity;BMP_temperature;BMP_pressure;BME280_temperature;BME280_humidity;BME280_pressure;Samples;Min_cycle;Max_cycle;Signal;HPM_P1;HPM_P2
2021/11/25 00:00:31;;;;;;;22.42;12.27;;;;;;;2.99;80.55;97625.47;4993050;28;20459;-56
2021/11/25 00:02:56;;;;;;;24.48;12.13;;;;;;;3.14;80.31;97620.94;5000013;28;20508;-57
2021/11/25 00:05:22;;;;;;;21.50;11.50;;;;;;;3.06;80.79;97613.34;4993517;28;20894;-55
2021/11/25 00:07:48;;;;;;;24.65;11.70;;;;;;;3.38;79.52;97604.16;4991720;28;20045;-59
2021/11/25 00:10:14;;;;;;;25.00;12.43;;;;;;;2.85;80.89;97607.69;4992307;28;20429;-56
2021/11/25 00:12:40;;;;;;;25.75;13.05;;;;;;;2.82;81.38;97600.00;4990574;28;20522;-55
2021/11/25 00:15:08;;;;;;;25.55;12.57;;;;;;;3.06;81.01;97588.41;4995914;28;20046;-57
2021/11/25 00:17:33;;;;;;;24.33;12.30;;;;;;;3.05;80.78;97596.16;4992404;28;20037;-55
2021/11/25 00:19:59;;;;;;;25.58;13.15;;;;;;;3.30;79.27;97595.75;4991919;28;20024;-57
2021/11/25 00:22:24;;;;;;;20.63;10.98;;;;;;;2.91;80.01;97595.56;4998774;28;20129;-56
2021/11/25 00:24:50;;;;;;;26.10;13.68;;;;;;;2.71;81.41;97601.91;4993010;28;20106;-55
2021/11/25 00:27:15;;;;;;;22.02;11.45;;;;;;;2.98;80.63;97590.28;4991281;28;20039;-55
2021/11/25 00:29:42;;;;;;;24.48;13.55;;;;;;;2.65;81.41;97592.53;4989969;28;20022;-55
2021/11/25 00:32:07;;;;;;;23.88;11.73;;;;;;;2.98;80.60;97594.56;4990003;28;20135;-56
2021/11/25 00:34:33;;;;;;;24.48;11.13;;;;;;;2.46;82.22;97597.13;4990063;28;20042;-55
2021/11/25 00:36:58;;;;;;;22.67;10.48;;;;;;;2.80;81.27;97591.44;4991447;28;20038;-58
2021/11/25 00:39:24;;;;;;;22.10;11.32;;;;;;;2.72;80.78;97602.72;4990770;28;20030;-55
2021/11/25 00:41:49;;;;;;;23.08;12.10;;;;;;;2.63;81.75;97599.44;4989111;28;20041;-55
2021/11/25 00:44:16;;;;;;;25.08;11.90;;;;;;;2.50;81.24;97593.63;4991491;28;20512;-57
2021/11/25 00:46:42;;;;;;;27.13;12.40;;;;;;;2.83;80.00;97586.25;4990078;28;20061;-56
2021/11/25 00:49:08;;;;;;;27.77;15.50;;;;;;;2.32;81.88;97588.75;4993421;28;20084;-57
2021/11/25 00:51:35;;;;;;;24.55;13.10;;;;;;;2.36;82.10;97590.41;4991336;28;20053;-55
2021/11/25 00:54:00;;;;;;;25.33;14.70;;;;;;;2.36;81.73;97585.25;4990782;28;20528;-56
2021/11/25 00:56:26;;;;;;;28.45;15.43;;;;;;;2.31;81.83;97593.03;4991885;28;20038;-57
2021/11/25 00:58:51;;;;;;;24.48;11.55;;;;;;;2.41;81.51;97577.44;4991091;28;20017;-56
2021/11/25 01:01:17;;;;;;;25.75;13.38;;;;;;;2.27;81.89;97585.41;4990098;28;20777;-57
2021/11/25 01:03:42;;;;;;;28.85;15.73;;;;;;;2.26;82.18;97578.53;4991547;28;20025;-55
2021/11/25 01:06:07;;;;;;;27.83;16.27;;;;;;;2.20;82.27;97573.50;4989894;28;20029;-57
2021/11/25 01:08:33;;;;;;;25.50;13.25;;;;;;;2.44;82.00;97565.38;4989182;28;20030;-56
2021/11/25 01:10:59;;;;;;;30.27;15.77;;;;;;;2.28;82.65;97567.38;4991231;28;20041;-56
2021/11/25 01:13:25;;;;;;;29.50;16.50;;;;;;;2.26;82.06;97570.81;4991703;28;20026;-56
2021/11/25 01:15:50;;;;;;;26.00;14.27;;;;;;;2.13;83.21;97562.44;4989234;28;20030;-55
2021/11/25 01:18:17;;;;;;;26.27;12.50;;;;;;;2.59;81.55;97566.03;4989514;28;20040;-58
2021/11/25 01:20:44;;;;;;;20.23;9.45;;;;;;;2.64;80.90;97553.94;4989656;28;20659;-55
2021/11/25 01:23:13;;;;;;;26.17;12.48;;;;;;;2.44;80.99;97567.97;4988804;28;20031;-56
2021/11/25 01:25:38;;;;;;;24.98;13.75;;;;;;;2.69;80.21;97567.59;4989161;28;20046;-57
2021/11/25 01:28:06;;;;;;;28.23;14.07;;;;;;;2.74;79.97;97554.63;4998619;28;20026;-55
2021/11/25 01:30:32;;;;;;;23.10;11.60;;;;;;;2.77;79.65;97560.56;4990727;28;20038;-55
2021/11/25 01:32:57;;;;;;;20.45;10.55;;;;;;;2.72;80.33;97551.22;4990896;28;20017;-55
2021/11/25 01:35:22;;;;;;;26.73;15.05;;;;;;;2.48;79.94;97549.03;4989237;28;20030;-56
2021/11/25 01:37:50;;;;;;;26.33;12.18;;;;;;;2.31;80.64;97551.00;4990283;28;20030;-55
2021/11/25 01:40:17;;;;;;;25.70;12.95;;;;;;;2.25;80.83;97553.69;4999135;28;20097;-56
2021/11/25 01:42:43;;;;;;;31.08;17.58;;;;;;;2.04;81.65;97550.56;4992168;28;20113;-57
2021/11/25 01:45:12;;;;;;;25.13;12.82;;;;;;;2.12;81.25;97547.88;4991103;28;20025;-56
2021/11/25 01:47:43;;;;;;;23.58;12.20;;;;;;;2.47;81.28;97541.34;4993164;28;20161;-54
2021/11/25 01:50:09;;;;;;;25.27;12.60;;;;;;;2.40;81.32;97544.88;4991929;28;20112;-56
2021/11/25 01:52:35;;;;;;;25.20;13.23;;;;;;;2.48;80.52;97540.44;4992998;28;20682;-55
2021/11/25 01:55:00;;;;;;;29.92;16.52;;;;;;;2.29;80.65;97539.91;4991278;28;20034;-56
2021/11/25 01:57:25;;;;;;;26.98;14.77;;;;;;;2.20;80.86;97532.31;4991389;28;20564;-56
2021/11/25 01:59:51;;;;;;;32.95;17.38;;;;;;;2.11;81.47;97529.03;4989070;28;20022;-55
2021/11/25 02:02:17;;;;;;;22.58;11.57;;;;;;;2.58;80.16;97528.31;4990459;28;20115;-56
2021/11/25 02:04:42;;;;;;;31.27;14.57;;;;;;;2.61;79.63;97533.38;4989362;28;20399;-55
2021/11/25 02:07:08;;;;;;;25.52;14.07;;;;;;;2.45;80.34;97522.50;4990430;28;20074;-57
2021/11/25 02:09:33;;;;;;;28.35;14.77;;;;;;;2.72;79.44;97518.63;4996586;28;20092;-57
2021/11/25 02:11:58;;;;;;;27.17;14.27;;;;;;;2.63;79.16;97505.91;4991750;28;20465;-56
2021/11/25 02:14:24;;;;;;;29.67;14.13;;;;;;;2.85;78.85;97506.38;4990707;28;20045;-55
2021/11/25 02:16:50;;;;;;;23.25;12.35;;;;;;;2.71;79.42;97509.19;4999071;28;20045;-58
2021/11/25 02:19:16;;;;;;;24.83;13.98;;;;;;;2.65;78.99;97496.44;4991807;28;20041;-56
2021/11/25 02:21:42;;;;;;;18.00;9.68;;;;;;;2.76;79.20;97497.09;4990263;28;20129;-56
2021/11/25 02:24:08;;;;;;;24.45;13.60;;;;;;;2.80;79.09;97492.72;4990419;28;20030;-57
2021/11/25 02:26:33;;;;;;;25.23;13.60;;;;;;;2.62;79.13;97493.91;4990254;28;20034;-55
2021/11/25 02:28:58;;;;;;;28.70;14.15;;;;;;;2.70;79.10;97489.44;4989704;28;20034;-58
2021/11/25 02:31:24;;;;;;;30.65;16.08;;;;;;;2.70;78.57;97486.88;4989658;28;20247;-57
2021/11/25 02:33:49;;;;;;;24.20;12.57;;;;;;;2.15;80.25;97477.50;4987951;28;20034;-56
2021/11/25 02:36:15;;;;;;;30.50;16.48;;;;;;;2.19;80.85;97476.56;4987697;28;20038;-55
2021/11/25 02:38:41;;;;;;;27.30;14.02;;;;;;;2.19;80.50;97468.84;4988859;28;20796;-57
2021/11/25 02:41:07;;;;;;;27.00;15.23;;;;;;;2.43;79.65;97468.47;4988717;28;20041;-57
2021/11/25 02:43:35;;;;;;;22.73;11.75;;;;;;;2.28;80.23;97463.59;4988313;28;20484;-56
2021/11/25 02:46:04;;;;;;;29.17;15.18;;;;;;;2.53;79.58;97468.31;4989644;28;20034;-56
2021/11/25 02:48:39;;;;;;;28.60;14.63;;;;;;;2.31;80.25;97463.50;4989247;28;20037;-55
2021/11/25 02:51:05;;;;;;;18.90;10.20;;;;;;;2.65;80.07;97468.94;4988728;28;20038;-56
2021/11/25 02:53:33;;;;;;;13.02;7.47;;;;;;;2.84;80.03;97469.44;4989296;28;20061;-54
2021/11/25 02:56:07;;;;;;;24.20;12.93;;;;;;;2.78;78.29;97471.31;4990840;28;20054;-55
2021/11/25 02:58:33;;;;;;;23.83;13.05;;;;;;;2.75;78.05;97472.19;4988538;28;20057;-55
2021/11/25 03:01:07;;;;;;;27.45;14.23;;;;;;;2.77;78.41;97467.84;4989326;28;20121;-54
2021/11/25 03:03:33;;;;;;;17.77;9.10;;;;;;;2.84;80.27;97469.44;4989032;28;20085;-56
2021/11/25 03:05:59;;;;;;;27.60;14.18;;;;;;;2.63;78.75;97460.41;4989670;28;20034;-54
2021/11/25 03:08:24;;;;;;;25.85;14.65;;;;;;;2.38;79.55;97454.81;4989087;28;20042;-54
2021/11/25 03:10:51;;;;;;;34.03;15.88;;;;;;;2.56;79.13;97447.66;4989659;28;20127;-56
2021/11/25 03:13:20;;;;;;;29.65;16.88;;;;;;;2.38;79.22;97444.53;4992440;28;20029;-56
2021/11/25 03:15:46;;;;;;;28.98;16.38;;;;;;;2.51;79.14;97435.72;4992167;28;20035;-54
2021/11/25 03:18:13;;;;;;;25.90;13.52;;;;;;;2.70;78.71;97441.38;4991006;28;20084;-56
2021/11/25 03:20:42;;;;;;;29.85;16.05;;;;;;;2.23;79.98;97434.50;4991410;28;20135;-55
2021/11/25 03:23:09;;;;;;;28.15;17.98;;;;;;;2.21;79.84;97449.13;4991286;28;20121;-56
2021/11/25 03:25:37;;;;;;;30.10;15.93;;;;;;;2.34;80.03;97447.19;4993159;28;20044;-54
2021/11/25 03:28:03;;;;;;;28.10;15.30;;;;;;;2.21;80.22;97447.38;4990695;28;20408;-54
2021/11/25 03:30:30;;;;;;;30.65;15.35;;;;;;;2.30;79.55;97446.41;4990572;28;20039;-53
2021/11/25 03:32:55;;;;;;;29.60;17.55;;;;;;;2.04;80.88;97447.66;5001430;28;20080;-55
2021/11/25 03:35:21;;;;;;;30.40;17.10;;;;;;;2.11;80.88;97450.97;4992707;28;20042;-56
2021/11/25 03:37:46;;;;;;;29.50;15.68;;;;;;;2.06;81.02;97443.34;4998508;28;20022;-55
2021/11/25 03:40:12;;;;;;;30.77;18.20;;;;;;;2.20;80.03;97437.13;4995208;28;20068;-56
2021/11/25 03:42:38;;;;;;;26.65;14.40;;;;;;;2.33;79.92;97425.72;4994826;28;20037;-55
2021/11/25 03:45:06;;;;;;;29.42;15.60;;;;;;;2.29;80.23;97418.94;4998057;28;20021;-55
2021/11/25 03:47:32;;;;;;;31.73;17.05;;;;;;;2.40;79.89;97408.47;4991893;28;20484;-54
2021/11/25 03:49:57;;;;;;;30.30;17.25;;;;;;;2.38;79.26;97402.50;4990774;28;20736;-54
2021/11/25 03:52:23;;;;;;;33.33;17.75;;;;;;;2.05;80.74;97400.47;4989876;28;20130;-55
2021/11/25 03:54:48;;;;;;;30.40;16.35;;;;;;;2.12;80.79;97396.09;4992765;28;20172;-55
2021/11/25 03:57:14;;;;;;;27.85;14.40;;;;;;;2.41;79.94;97394.72;4990882;28;20512;-54
2021/11/25 03:59:39;;;;;;;29.38;15.07;;;;;;;2.49;79.65;97395.44;4992205;28;20106;-55
2021/11/25 04:02:05;;;;;;;27.05;14.57;;;;;;;2.39;79.98;97394.75;4990863;28;20038;-54
2021/11/25 04:04:31;;;;;;;28.60;15.02;;;;;;;2.48;79.15;97404.88;4992638;28;20041;-54
2021/11/25 04:06:56;;;;;;;30.85;15.30;;;;;;;2.40;79.78;97396.44;4992240;28;20034;-56
2021/11/25 04:09:23;;;;;;;31.38;15.00;;;;;;;2.49;80.06;97406.56;4992030;28;20044;-55
2021/11/25 04:11:49;;;;;;;29.80;15.23;;;;;;;2.93;78.03;97400.63;4991764;28;20049;-55
2021/11/25 04:14:14;;;;;;;28.27;15.05;;;;;;;2.54;79.02;97401.34;4994490;28;20132;-54
2021/11/25 04:16:40;;;;;;;31.17;15.23;;;;;;;2.36;80.06;97394.81;4993165;28;20039;-56
2021/11/25 04:19:05;;;;;;;24.60;12.68;;;;;;;2.43;79.94;97396.41;4991354;28;20040;-55
2021/11/25 04:21:31;;;;;;;35.45;16.13;;;;;;;2.29;80.05;97393.22;4991207;28;20492;-54
2021/11/25 04:23:56;;;;;;;24.40;13.23;;;;;;;2.74;79.65;97395.81;4994849;28;20448;-55
2021/11/25 04:26:21;;;;;;;25.52;12.25;;;;;;;2.31;81.01;97391.47;4994344;28;20503;-55
2021/11/25 04:28:47;;;;;;;27.20;12.07;;;;;;;2.60;82.10;97398.66;4992064;28;20042;-54
2021/11/25 04:36:41;;;;;;;27.08;14.32;;;;;;;2.76;79.86;97376.03;4991637;28;20053;-54
2021/11/25 04:39:07;;;;;;;25.38;12.85;;;;;;;3.02;79.78;97382.38;4993058;28;20026;-55
2021/11/25 04:41:34;;;;;;;11.45;6.68;;;;;;;2.99;80.25;97379.88;4988459;28;20105;-54
2021/11/25 04:43:59;;;;;;;30.17;14.80;;;;;;;2.35;80.32;97377.66;4991814;28;20072;-55
2021/11/25 04:46:25;;;;;;;30.98;17.33;;;;;;;2.19;81.26;97377.09;4992038;28;20037;-55
2021/11/25 04:48:50;;;;;;;30.27;16.42;;;;;;;2.41;80.69;97372.41;4990890;28;20149;-54
2021/11/25 04:51:17;;;;;;;31.65;15.70;;;;;;;2.30;81.16;97374.34;4991416;28;20038;-55
2021/11/25 04:53:42;;;;;;;33.55;17.10;;;;;;;2.36;80.47;97366.50;4993269;28;20764;-56
2021/11/25 04:56:08;;;;;;;33.65;16.55;;;;;;;2.42;80.90;97361.22;4989268;28;20811;-54
2021/11/25 04:58:33;;;;;;;34.65;17.00;;;;;;;2.30;80.80;97353.75;4992059;28;20021;-56
2021/11/25 05:00:59;;;;;;;30.88;16.00;;;;;;;2.41;80.48;97349.25;4991258;28;20416;-56
2021/11/25 05:03:25;;;;;;;24.58;13.43;;;;;;;2.74;80.39;97354.63;4990059;28;20030;-54
2021/11/25 05:05:50;;;;;;;23.60;11.45;;;;;;;2.99;79.88;97348.94;4991209;28;20405;-56
2021/11/25 05:08:16;;;;;;;26.65;13.55;;;;;;;3.08;80.84;97338.44;4992061;28;20036;-56
2021/11/25 05:10:41;;;;;;;32.03;15.10;;;;;;;2.54;80.37;97346.41;4995712;28;20128;-56
2021/11/25 05:13:08;;;;;;;28.02;14.35;;;;;;;2.84;80.22;97348.38;4991873;28;20062;-55
2021/11/25 05:15:33;;;;;;;25.88;12.98;;;;;;;2.85;80.54;97344.94;4991026;28;20038;-53
2021/11/25 05:17:59;;;;;;;17.42;9.00;;;;;;;2.76;81.75;97352.00;4992016;28;20038;-56
2021/11/25 05:20:24;;;;;;;33.42;15.02;;;;;;;2.19;81.90;97350.50;4989679;28;20045;-57
2021/11/25 05:22:50;;;;;;;12.95;6.70;;;;;;;2.97;82.71;97355.88;4990882;28;20026;-54
2021/11/25 05:25:17;;;;;;;32.40;16.38;;;;;;;2.45;80.67;97350.88;4988763;28;20045;-59
2021/11/25 05:27:44;;;;;;;35.30;15.75;;;;;;;2.27;81.55;97358.94;4989599;28;20034;-58
2021/11/25 05:30:11;;;;;;;36.38;17.08;;;;;;;2.22;81.86;97356.44;4989155;28;20856;-54
2021/11/25 05:32:37;;;;;;;33.45;16.50;;;;;;;2.46;80.86;97350.00;4989421;28;20037;-57
2021/11/25 05:35:03;;;;;;;37.97;17.65;;;;;;;2.59;79.90;97347.19;4989077;28;20510;-57
2021/11/25 05:37:29;;;;;;;37.30;16.73;;;;;;;2.48;80.84;97340.53;4990984;28;20042;-54
2021/11/25 05:39:54;;;;;;;33.25;14.98;;;;;;;2.61;80.49;97343.72;4989520;28;20038;-57
2021/11/25 05:42:19;;;;;;;34.08;15.88;;;;;;;2.84;79.80;97345.81;4990339;28;20671;-57
2021/11/25 05:44:46;;;;;;;28.27;12.80;;;;;;;3.09;81.93;97347.88;4989812;28;20035;-56
2021/11/25 05:47:12;;;;;;;24.92;11.27;;;;;;;3.45;82.98;97342.78;4989712;28;20101;-57
2021/11/25 05:49:37;;;;;;;22.88;9.32;;;;;;;3.33;86.53;97340.47;4989513;28;20026;-55
2021/11/25 05:52:04;;;;;;;10.98;5.03;;;;;;;4.12;93.11;97345.47;4989408;28;20045;-56
2021/11/25 05:54:31;;;;;;;38.65;17.95;;;;;;;2.99;83.69;97338.66;4989370;28;20060;-54
2021/11/25 05:56:57;;;;;;;34.30;15.65;;;;;;;2.54;84.59;97330.97;4987831;28;20076;-55
2021/11/25 05:59:22;;;;;;;27.95;13.20;;;;;;;3.49;86.59;97339.25;4988154;28;20029;-56
2021/11/25 06:01:47;;;;;;;31.08;14.52;;;;;;;3.56;87.04;97333.06;4987190;28;20034;-55
2021/11/25 06:04:13;;;;;;;32.15;14.30;;;;;;;3.95;89.14;97333.00;4990173;28;20104;-56
2021/11/25 06:06:38;;;;;;;36.35;14.95;;;;;;;3.85;87.30;97331.53;4990014;28;20197;-56
2021/11/25 06:09:04;;;;;;;35.17;16.95;;;;;;;2.62;83.22;97337.69;4989776;28;20026;-56
2021/11/25 06:11:29;;;;;;;33.38;14.68;;;;;;;3.21;83.77;97339.88;4988733;28;20038;-56
2021/11/25 06:13:55;;;;;;;39.45;16.42;;;;;;;3.11;85.41;97348.69;4989615;28;20241;-55
2021/11/25 06:16:20;;;;;;;38.78;17.23;;;;;;;2.75;83.88;97351.16;4995425;28;20052;-57
2021/11/25 06:18:45;;;;;;;36.75;16.67;;;;;;;2.91;82.75;97345.72;4989849;28;20109;-55
2021/11/25 06:21:11;;;;;;;31.98;13.50;;;;;;;2.94;83.10;97343.03;4989935;28;20627;-56
2021/11/25 06:23:36;;;;;;;31.10;14.05;;;;;;;3.12;82.70;97334.91;4991269;28;20137;-55
2021/11/25 06:26:02;;;;;;;13.50;5.95;;;;;;;4.18;90.26;97328.97;4988693;28;20053;-56
2021/11/25 06:28:27;;;;;;;32.10;11.98;;;;;;;3.92;93.62;97330.47;4989688;28;20034;-57
2021/11/25 06:30:53;;;;;;;38.00;13.48;;;;;;;3.90;91.88;97337.41;4992901;28;20810;-56
2021/11/25 06:33:18;;;;;;;19.40;5.53;;;;;;;6.47;100.00;97334.06;4995826;28;20118;-57
2021/11/25 06:35:44;;;;;;;83.70;17.75;;;;;;;4.72;99.88;97335.25;4989469;28;20420;-56
2021/11/25 06:38:09;;;;;;;39.47;17.67;;;;;;;4.10;89.41;97342.06;4989054;28;20385;-58
2021/11/25 06:40:36;;;;;;;34.58;13.18;;;;;;;3.99;89.51;97344.09;4989671;28;20038;-56
2021/11/25 06:43:06;;;;;;;41.03;12.48;;;;;;;4.83;100.00;97346.13;4989916;28;20117;-56
2021/11/25 06:45:32;;;;;;;123.40;21.65;;;;;;;4.17;96.62;97353.06;4988236;28;20074;-55
2021/11/25 06:47:57;;;;;;;201.13;24.48;;;;;;;4.35;100.00;97356.91;4992283;28;20097;-55
2021/11/25 06:50:25;;;;;;;102.25;22.38;;;;;;;9.16;100.00;97366.63;4990758;28;20052;-55
2021/11/25 06:52:51;;;;;;;78.18;22.58;;;;;;;4.72;100.00;97361.91;4989174;28;20022;-55
2021/11/25 06:55:17;;;;;;;42.20;18.23;;;;;;;3.88;82.00;97367.56;4988981;28;20033;-55
2021/11/25 06:57:47;;;;;;;37.40;17.30;;;;;;;4.11;80.21;97368.72;4989135;28;20043;-55
2021/11/25 07:00:15;;;;;;;39.55;17.48;;;;;;;4.09;81.14;97373.91;4990671;28;20022;-55
2021/11/25 07:02:41;;;;;;;38.50;16.40;;;;;;;4.03;86.66;97371.50;4990500;28;20030;-57
2021/11/25 07:05:08;;;;;;;38.10;17.20;;;;;;;3.71;82.51;97364.53;4990213;28;20037;-56
2021/11/25 07:07:34;;;;;;;35.60;16.60;;;;;;;3.70;82.38;97368.00;4990738;28;20022;-56
2021/11/25 07:10:00;;;;;;;37.70;16.23;;;;;;;3.84;86.47;97366.78;4991448;28;20479;-56
2021/11/25 07:12:26;;;;;;;35.17;16.05;;;;;;;3.60;84.19;97369.94;4992693;28;20515;-57
2021/11/25 07:14:51;;;;;;;33.95;15.57;;;;;;;3.89;85.22;97369.25;4987114;28;20034;-55
2021/11/25 07:17:17;;;;;;;35.22;15.27;;;;;;;3.33;88.49;97363.66;4989387;28;20038;-56
2021/11/25 07:19:42;;;;;;;39.65;16.48;;;;;;;3.56;85.56;97356.28;4987301;28;20117;-55
2021/11/25 07:22:08;;;;;;;33.22;15.52;;;;;;;3.62;84.84;97356.16;4989978;28;20125;-56
2021/11/25 07:24:33;;;;;;;31.40;14.80;;;;;;;2.91;85.10;97362.00;4990750;28;20885;-55
2021/11/25 07:26:59;;;;;;;34.60;15.07;;;;;;;3.18;85.08;97362.28;4989792;28;20108;-57
2021/11/25 07:29:25;;;;;;;34.80;15.65;;;;;;;3.20;84.50;97353.66;4991429;28;20136;-55
2021/11/25 07:31:51;;;;;;;33.47;15.30;;;;;;;3.18;85.02;97352.84;4988877;28;20137;-56
2021/11/25 07:34:17;;;;;;;34.40;15.60;;;;;;;3.53;84.41;97358.94;4987973;28;20085;-55
2021/11/25 07:36:42;;;;;;;33.72;14.60;;;;;;;3.50;81.72;97360.75;4989463;28;20038;-57
2021/11/25 07:39:08;;;;;;;34.65;15.63;;;;;;;3.66;81.99;97360.34;4989393;28;20052;-56
2021/11/25 07:41:37;;;;;;;41.95;15.88;;;;;;;3.66;84.30;97352.59;4990669;28;20042;-56
2021/11/25 07:44:03;;;;;;;32.25;12.95;;;;;;;3.61;85.46;97361.34;4989764;28;20499;-55
2021/11/25 07:46:29;;;;;;;36.38;15.02;;;;;;;3.47;84.77;97361.63;4989366;28;20504;-57
2021/11/25 07:48:54;;;;;;;37.70;16.35;;;;;;;3.52;83.67;97370.13;4987250;28;20061;-56
2021/11/25 07:51:20;;;;;;;36.63;15.70;;;;;;;3.69;86.25;97366.31;4988783;28;20510;-55
2021/11/25 07:53:47;;;;;;;39.85;15.82;;;;;;;3.52;83.12;97366.69;4992649;28;20032;-57
2021/11/25 07:56:12;;;;;;;37.15;15.60;;;;;;;3.60;85.92;97360.50;4996197;28;20045;-55
2021/11/25 07:58:37;;;;;;;36.67;15.95;;;;;;;3.76;85.33;97357.53;4991519;28;20030;-56
2021/11/25 08:01:03;;;;;;;37.20;14.43;;;;;;;3.84;85.78;97358.19;4991371;28;20044;-55
2021/11/25 08:03:28;;;;;;;39.30;15.93;;;;;;;3.75;84.84;97361.00;4993048;28;20030;-55
2021/11/25 08:05:54;;;;;;;40.72;17.08;;;;;;;3.71;83.01;97359.38;4995407;28;20044;-55
2021/11/25 08:08:19;;;;;;;40.42;16.13;;;;;;;3.44;84.37;97360.00;4992904;28;20529;-55
2021/11/25 08:10:44;;;;;;;40.20;16.15;;;;;;;3.74;83.79;97349.00;4996192;28;20038;-56
2021/11/25 08:13:10;;;;;;;42.90;15.95;;;;;;;3.73;83.31;97347.28;4992779;28;20121;-55
2021/11/25 08:15:36;;;;;;;39.28;16.73;;;;;;;3.70;83.37;97352.53;4991888;28;20919;-55
2021/11/25 08:18:02;;;;;;;38.55;16.35;;;;;;;3.61;82.51;97357.00;4992693;28;20057;-57
2021/11/25 08:20:27;;;;;;;38.40;16.27;;;;;;;3.60;83.54;97351.88;4993491;28;20034;-55
2021/11/25 08:22:53;;;;;;;37.90;15.93;;;;;;;3.63;84.85;97347.50;4994318;28;20080;-55
2021/11/25 08:25:21;;;;;;;38.58;16.17;;;;;;;3.45;83.01;97338.47;5001578;28;20588;-57
2021/11/25 08:27:49;;;;;;;43.33;17.50;;;;;;;3.76;82.92;97337.75;4990619;28;20022;-56
2021/11/25 08:30:16;;;;;;;41.30;17.80;;;;;;;3.59;82.62;97345.06;4993806;28;20791;-55
2021/11/25 08:32:42;;;;;;;41.40;16.27;;;;;;;3.71;82.93;97343.91;4993621;28;20088;-56
2021/11/25 08:35:09;;;;;;;38.53;16.80;;;;;;;3.90;83.32;97339.13;4992261;28;20029;-55
2021/11/25 08:37:35;;;;;;;36.75;16.52;;;;;;;3.63;83.19;97347.50;4992126;28;20080;-55
2021/11/25 08:40:01;;;;;;;35.80;14.93;;;;;;;4.07;83.48;97341.31;4990720;28;20038;-57
2021/11/25 08:42:27;;;;;;;36.33;15.68;;;;;;;3.91;83.79;97346.00;4992418;28;20521;-55
2021/11/25 08:44:52;;;;;;;38.00;16.05;;;;;;;3.25;81.51;97346.69;4992039;28;20113;-55
2021/11/25 08:47:18;;;;;;;36.83;14.90;;;;;;;3.36;85.62;97351.56;4992272;28;20792;-54
2021/11/25 08:49:44;;;;;;;43.83;18.15;;;;;;;3.31;81.88;97355.13;4991588;28;20022;-55
2021/11/25 08:52:09;;;;;;;39.15;16.65;;;;;;;3.57;81.08;97357.97;4991322;28;20432;-56
2021/11/25 08:54:35;;;;;;;42.13;15.30;;;;;;;3.42;83.84;97359.19;4999470;28;20942;-55
2021/11/25 08:57:00;;;;;;;41.30;17.15;;;;;;;3.53;81.24;97356.34;4990704;28;20043;-55
2021/11/25 08:59:26;;;;;;;37.90;16.40;;;;;;;3.32;85.23;97355.09;4999715;28;20034;-54
2021/11/25 09:01:51;;;;;;;41.53;17.33;;;;;;;3.24;81.31;97349.28;4991742;28;20042;-55
2021/11/25 09:04:17;;;;;;;39.58;16.60;;;;;;;3.32;82.64;97355.09;4989908;28;20034;-56
2021/11/25 09:06:43;;;;;;;37.72;15.98;;;;;;;3.23;83.64;97356.16;4995061;28;20034;-55
2021/11/25 09:09:09;;;;;;;44.60;17.38;;;;;;;3.56;82.18;97364.00;4990758;28;20125;-55
2021/11/25 09:11:35;;;;;;;41.17;18.27;;;;;;;3.61;79.85;97371.66;4989579;28;20415;-54
2021/11/25 09:14:01;;;;;;;33.88;15.30;;;;;;;3.74;81.78;97374.78;4993069;28;20116;-56
2021/11/25 09:16:26;;;;;;;39.10;17.17;;;;;;;3.38;80.81;97367.00;4992196;28;20042;-56
2021/11/25 09:18:52;;;;;;;43.83;16.60;;;;;;;3.49;89.71;97365.03;4993268;28;20057;-55
2021/11/25 09:21:17;;;;;;;41.15;17.02;;;;;;;3.52;83.96;97371.84;4988948;28;20038;-56
2021/11/25 09:23:43;;;;;;;42.13;16.55;;;;;;;3.92;83.64;97369.19;4992254;28;20022;-54
2021/11/25 09:26:08;;;;;;;38.40;16.95;;;;;;;3.97;79.77;97367.34;4991340;28;20034;-55
2021/11/25 09:28:35;;;;;;;39.70;17.35;;;;;;;3.80;81.37;97360.00;4992479;28;20448;-54
2021/11/25 09:31:00;;;;;;;42.03;17.58;;;;;;;3.71;79.09;97349.06;4991045;28;20797;-56
2021/11/25 09:33:26;;;;;;;38.95;16.42;;;;;;;3.59;81.14;97338.16;4990560;28;20041;-55
2021/11/25 09:35:52;;;;;;;35.83;16.33;;;;;;;4.08;78.96;97332.66;4990294;28;20038;-55
2021/11/25 09:38:18;;;;;;;36.25;15.15;;;;;;;4.49;79.30;97328.16;4990517;28;20030;-55
2021/11/25 09:40:46;;;;;;;39.55;16.90;;;;;;;3.92;78.71;97332.22;4991625;28;20412;-54
2021/11/25 09:43:15;;;;;;;36.53;15.07;;;;;;;4.05;80.09;97324.13;4989187;28;20081;-56
2021/11/25 09:45:41;;;;;;;38.25;16.83;;;;;;;3.87;78.72;97324.59;4987671;28;20041;-54
2021/11/25 09:48:12;;;;;;;38.22;16.73;;;;;;;3.72;80.63;97320.66;4988061;28;20538;-54
2021/11/25 09:50:40;;;;;;;37.25;16.80;;;;;;;3.65;79.43;97317.38;4988793;28;20066;-54
2021/11/25 09:53:09;;;;;;;30.75;12.45;;;;;;;3.97;82.45;97300.25;4988983;28;20064;-56
2021/11/25 09:55:36;;;;;;;38.38;17.55;;;;;;;4.25;77.12;97294.38;4989149;28;20583;-55
2021/11/25 09:58:02;;;;;;;37.75;15.48;;;;;;;4.38;78.22;97300.03;4991931;28;20030;-55
2021/11/25 10:00:29;;;;;;;36.85;15.32;;;;;;;4.56;76.05;97293.53;4990370;28;20034;-55
2021/11/25 10:02:55;;;;;;;36.40;17.45;;;;;;;3.92;75.57;97306.41;4992603;28;20925;-54
2021/11/25 10:05:21;;;;;;;36.13;17.02;;;;;;;3.43;78.24;97298.16;4992384;28;21160;-55
2021/11/25 10:07:47;;;;;;;38.33;16.77;;;;;;;3.93;77.51;97293.47;4990578;28;20084;-55
2021/11/25 10:10:28;;;;;;;35.88;16.35;;;;;;;4.28;76.36;97288.25;4993034;28;20118;-54
2021/11/25 10:13:23;;;;;;;44.47;18.30;;;;;;;4.64;76.17;97281.22;4990897;28;20132;-54
2021/11/25 10:15:50;;;;;;;38.33;17.70;;;;;;;4.10;76.72;97289.59;4990130;28;20693;-55
2021/11/25 10:18:17;;;;;;;38.40;17.83;;;;;;;3.97;76.24;97282.19;4990564;28;20045;-55
2021/11/25 10:20:52;;;;;;;39.95;17.48;;;;;;;4.29;75.64;97280.47;4989800;28;20224;-54
2021/11/25 10:23:26;;;;;;;45.10;18.45;;;;;;;4.30;77.24;97276.16;4989999;28;20029;-56
2021/11/25 10:26:07;;;;;;;38.15;17.35;;;;;;;4.05;77.87;97279.41;4990982;28;20041;-55
2021/11/25 10:28:54;;;;;;;43.40;18.42;;;;;;;4.30;76.57;97277.03;4991642;28;20819;-55
2021/11/25 10:31:31;;;;;;;38.67;16.70;;;;;;;3.94;77.01;97273.69;4987950;28;20117;-55
2021/11/25 10:34:03;;;;;;;35.20;16.55;;;;;;;3.80;77.68;97266.28;4990363;28;20046;-54
2021/11/25 10:42:11;;;;;;;43.88;18.27;;;;;;;4.01;77.34;97270.91;4988827;28;20161;-54
2021/11/25 10:44:44;;;;;;;42.65;18.15;;;;;;;3.85;78.35;97269.59;4990457;28;20435;-54
2021/11/25 10:47:25;;;;;;;46.85;20.17;;;;;;;3.96;77.18;97275.31;4989118;28;20134;-57
2021/11/25 10:49:56;;;;;;;42.30;18.95;;;;;;;3.86;78.56;97281.63;4991327;28;20037;-54
2021/11/25 10:52:28;;;;;;;35.58;16.75;;;;;;;4.06;78.09;97283.66;4987718;28;20051;-54
2021/11/25 10:55:09;;;;;;;43.00;18.35;;;;;;;4.34;79.06;97278.63;4991014;28;20022;-54
2021/11/25 10:57:42;;;;;;;43.30;18.55;;;;;;;4.03;77.38;97287.19;4988135;28;20038;-54
2021/11/25 11:00:13;;;;;;;;;;;;;;;4.15;79.13;97287.75;4990895;28;20037;-54
2021/11/25 11:02:40;;;;;;;42.25;17.98;;;;;;;4.23;78.15;97290.97;4991483;28;20000;-54
2021/11/25 11:05:10;;;;;;;40.72;18.13;;;;;;;4.47;77.72;97283.41;4989984;28;20031;-56
2021/11/25 11:07:39;;;;;;;42.15;18.85;;;;;;;4.15;79.16;97280.00;4987633;28;20363;-56
2021/11/25 11:10:17;;;;;;;44.53;19.00;;;;;;;4.03;79.40;97287.19;4990505;28;20132;-55
2021/11/25 11:12:50;;;;;;;39.33;17.83;;;;;;;4.42;77.09;97286.97;4991679;28;20018;-55
2021/11/25 11:20:31;;;;;;;40.50;18.30;;;;;;;4.25;77.44;97271.13;4988017;28;20046;-54
2021/11/25 11:23:02;;;;;;;45.15;18.75;;;;;;;4.16;77.40;97271.38;4988611;28;20021;-55
2021/11/25 11:25:33;;;;;;;43.05;18.65;;;;;;;4.03;80.65;97282.03;4990102;28;20085;-55
2021/11/25 11:28:02;;;;;;;44.90;18.92;;;;;;;4.27;78.30;97276.25;4988549;28;20041;-57
2021/11/25 11:30:28;;;;;;;43.70;19.30;;;;;;;4.36;76.49;97270.84;4989661;28;20038;-55
2021/11/25 11:32:55;;;;;;;41.78;18.60;;;;;;;4.40;76.81;97273.28;4992760;28;20503;-58
2021/11/25 11:35:22;;;;;;;43.10;19.83;;;;;;;4.08;78.24;97270.72;4991869;28;20049;-56
2021/11/25 11:37:51;;;;;;;41.67;19.02;;;;;;;4.18;77.74;97272.19;4994055;28;20022;-56
2021/11/25 11:40:19;;;;;;;36.17;16.15;;;;;;;4.54;78.17;97267.75;4993519;28;20080;-55